Time;durP1;ratioP1;P1;durP2;ratioP2;P2;SDS_P1;SDS_P2;PMS_P1;PMS_P2;Temp;Humidity;BMP_temperature;BMP_pressure;BME280_temperature;BME280_humidity;BME280_pressure;Samples;Min_cycle;Max_cycle;Signal;HPM_P1;HPM_P2
2022/10/05 00:01:51;;;;;;;0.15;0.15;;;15.90;99.90;;;;;;5030328;28;20111;-73
2022/10/05 00:04:25;;;;;;;0.20;0.20;;;16.00;99.90;;;;;;5030659;28;20370;-72
2022/10/05 00:06:59;;;;;;;0.70;0.45;;;16.00;99.90;;;;;;5049438;28;20045;-72
2022/10/05 00:09:28;;;;;;;0.20;0.20;;;16.00;99.90;;;;;;5052882;28;20570;-72
2022/10/05 00:11:54;;;;;;;0.73;0.73;;;16.00;99.90;;;;;;5033955;28;20545;-73
2022/10/05 00:14:29;;;;;;;0.10;0.10;;;16.00;99.90;;;;;;5034396;28;20041;-73
2022/10/05 00:16:56;;;;;;;0.95;0.88;;;16.00;99.90;;;;;;5051809;28;20513;-73
2022/10/05 00:19:33;;;;;;;0.10;0.10;;;15.90;99.90;;;;;;5032241;28;20042;-73
2022/10/05 00:22:10;;;;;;;0.10;0.10;;;15.90;99.90;;;;;;5034655;28;20546;-72
2022/10/05 00:24:35;;;;;;;0.38;0.20;;;15.90;99.90;;;;;;5053066;28;20044;-72
2022/10/05 00:27:24;;;;;;;0.03;0.03;;;15.90;99.90;;;;;;5037673;28;20045;-72
2022/10/05 00:29:51;;;;;;;0.10;0.10;;;15.90;99.90;;;;;;5045845;28;20397;-72
2022/10/05 00:32:17;;;;;;;0.88;0.75;;;15.90;99.90;;;;;;5020136;28;20546;-72
2022/10/05 00:34:44;;;;;;;0.20;0.20;;;15.90;99.90;;;;;;5040836;28;20049;-71
2022/10/05 00:37:12;;;;;;;0.10;0.10;;;15.90;99.90;;;;;;5046710;28;20059;-71
2022/10/05 00:39:40;;;;;;;1.13;1.08;;;16.00;99.90;;;;;;5015333;28;20050;-72
2022/10/05 00:42:28;;;;;;;0.10;0.10;;;15.90;99.90;;;;;;5030077;28;20037;-72
2022/10/05 00:45:03;;;;;;;0.30;0.30;;;15.90;99.90;;;;;;5035091;28;20186;-72
2022/10/05 00:47:50;;;;;;;3.08;0.63;;;15.90;99.90;;;;;;5032685;28;20128;-72
2022/10/05 00:50:46;;;;;;;0.00;0.00;;;15.90;99.90;;;;;;5050032;28;20049;-72
2022/10/05 00:53:55;;;;;;;0.00;0.00;;;15.90;99.90;;;;;;5029002;28;20068;-72
2022/10/05 00:56:48;;;;;;;0.15;0.15;;;15.90;99.90;;;;;;5029415;28;20119;-71
2022/10/05 00:59:35;;;;;;;0.20;0.20;;;15.90;99.90;;;;;;5047214;28;20157;-73
2022/10/05 01:02:42;;;;;;;0.15;0.15;;;15.90;99.90;;;;;;5036823;28;20108;-72
2022/10/05 01:05:14;;;;;;;0.10;0.10;;;15.90;99.90;;;;;;5029499;28;20089;-72
2022/10/05 01:08:24;;;;;;;0.00;0.00;;;15.80;99.90;;;;;;5050815;28;20049;-71
2022/10/05 01:11:15;;;;;;;0.10;0.10;;;15.80;99.90;;;;;;5035893;28;20057;-72
2022/10/05 01:14:21;;;;;;;0.08;0.08;;;15.80;99.90;;;;;;5032102;28;20057;-73
2022/10/05 01:17:08;;;;;;;0.10;0.10;;;15.80;99.90;;;;;;5032633;28;20049;-73
2022/10/05 01:19:50;;;;;;;0.13;0.13;;;15.80;99.90;;;;;;5032285;28;20041;-73
2022/10/05 01:22:36;;;;;;;0.45;0.38;;;15.80;99.90;;;;;;5028934;28;20379;-72
2022/10/05 01:25:20;;;;;;;0.20;0.20;;;15.80;99.90;;;;;;5008138;28;20069;-72
2022/10/05 01:28:00;;;;;;;0.55;0.55;;;15.80;99.90;;;;;;5026842;28;20543;-72
2022/10/05 01:30:29;;;;;;;0.20;0.20;;;15.70;99.90;;;;;;5030780;28;20573;-72
2022/10/05 01:33:26;;;;;;;0.10;0.10;;;15.70;99.90;;;;;;5025960;28;20092;-72
2022/10/05 01:36:01;;;;;;;0.00;0.00;;;15.80;99.90;;;;;;5036026;28;20041;-72
2022/10/05 01:38:45;;;;;;;0.10;0.10;;;15.80;99.90;;;;;;5051678;28;20049;-72
2022/10/05 01:41:32;;;;;;;0.10;0.10;;;15.70;99.90;;;;;;5034779;28;20049;-71
2022/10/05 01:44:15;;;;;;;0.70;0.55;;;15.80;99.90;;;;;;5031076;28;20057;-71
2022/10/05 01:47:05;;;;;;;0.00;0.00;;;15.70;99.90;;;;;;5043157;28;20079;-72
2022/10/05 01:49:52;;;;;;;0.28;0.28;;;15.70;99.90;;;;;;5038136;28;20100;-72
2022/10/05 01:52:46;;;;;;;0.20;0.20;;;15.60;99.90;;;;;;5029444;28;20041;-72
2022/10/05 01:55:11;;;;;;;0.25;0.25;;;15.60;99.90;;;;;;5032239;28;20052;-72
2022/10/05 01:58:05;;;;;;;0.80;0.68;;;15.70;99.90;;;;;;5031558;28;20053;-72
2022/10/05 02:00:57;;;;;;;0.20;0.20;;;15.60;99.90;;;;;;5031282;28;20045;-72
2022/10/05 02:03:29;;;;;;;0.00;0.00;;;15.70;99.90;;;;;;5020391;28;20510;-73
2022/10/05 02:06:11;;;;;;;0.15;0.08;;;15.70;99.90;;;;;;5037016;28;20057;-72
2022/10/05 02:08:42;;;;;;;0.10;0.10;;;15.70;99.90;;;;;;5030940;28;20045;-73
2022/10/05 02:11:11;;;;;;;0.35;0.35;;;15.70;99.90;;;;;;5024026;28;20056;-72
2022/10/05 02:13:50;;;;;;;0.60;0.40;;;15.70;99.90;;;;;;5037172;28;20565;-73
2022/10/05 02:16:40;;;;;;;0.40;0.40;;;15.70;99.90;;;;;;5030380;28;20052;-72
2022/10/05 02:19:22;;;;;;;5.10;0.65;;;15.70;99.90;;;;;;5049396;28;20056;-72
2022/10/05 02:22:03;;;;;;;0.00;0.00;;;15.80;99.90;;;;;;5038467;28;20056;-72
2022/10/05 02:24:34;;;;;;;0.10;0.10;;;15.70;99.90;;;;;;5028523;28;20052;-72
2022/10/05 02:27:02;;;;;;;0.13;0.13;;;15.70;99.90;;;;;;5029048;28;20102;-72
2022/10/05 02:29:31;;;;;;;0.17;0.17;;;15.80;99.90;;;;;;5032790;28;20045;-71
2022/10/05 02:32:02;;;;;;;0.30;0.30;;;15.70;99.90;;;;;;5047082;28;20038;-73
2022/10/05 02:34:39;;;;;;;0.10;0.10;;;15.70;99.90;;;;;;5010982;28;20092;-73
2022/10/05 02:37:16;;;;;;;0.00;0.00;;;15.70;99.90;;;;;;5022221;28;20498;-72
2022/10/05 02:40:24;;;;;;;0.22;0.22;;;15.70;99.90;;;;;;5048183;28;20045;-71
2022/10/05 02:43:02;;;;;;;0.68;0.68;;;15.70;99.90;;;;;;5018659;28;20057;-72
2022/10/05 02:45:40;;;;;;;0.65;0.40;;;15.70;99.90;;;;;;5028635;28;20135;-72
2022/10/05 02:48:09;;;;;;;0.10;0.10;;;15.70;99.90;;;;;;5039649;28;20036;-72
2022/10/05 02:50:43;;;;;;;0.98;0.90;;;15.70;99.90;;;;;;5048683;28;20132;-72
2022/10/05 02:53:38;;;;;;;1.83;1.40;;;15.70;99.90;;;;;;5038322;28;20409;-72
2022/10/05 02:56:30;;;;;;;0.20;0.20;;;15.70;99.90;;;;;;5036202;28;20049;-73
2022/10/05 02:59:33;;;;;;;0.10;0.10;;;15.70;99.90;;;;;;5010693;28;20049;-72
2022/10/05 03:02:08;;;;;;;0.00;0.00;;;15.70;99.90;;;;;;5013873;28;20046;-72
2022/10/05 03:05:01;;;;;;;0.10;0.10;;;15.70;99.90;;;;;;5047298;28;20452;-73
2022/10/05 03:07:36;;;;;;;0.10;0.10;;;15.70;99.90;;;;;;5011386;28;20084;-72
2022/10/05 03:10:11;;;;;;;0.17;0.17;;;15.70;99.90;;;;;;5030273;28;20037;-72
2022/10/05 03:13:06;;;;;;;4.40;1.10;;;15.70;99.90;;;;;;5023438;28;20045;-72
2022/10/05 03:16:05;;;;;;;0.00;0.00;;;15.70;99.90;;;;;;5039131;28;20067;-73
2022/10/05 03:18:44;;;;;;;3.40;0.80;;;15.70;99.90;;;;;;5050339;28;20044;-72
2022/10/05 03:21:30;;;;;;;0.10;0.10;;;15.70;99.90;;;;;;5049797;28;20120;-72
2022/10/05 03:24:17;;;;;;;0.10;0.10;;;15.70;99.90;;;;;;5022015;28;20044;-71
2022/10/05 03:27:00;;;;;;;0.10;0.10;;;15.70;99.90;;;;;;5037871;28;20052;-71
2022/10/05 03:29:42;;;;;;;0.65;0.65;;;15.70;99.90;;;;;;5028038;28;20095;-72
2022/10/05 03:32:17;;;;;;;0.33;0.33;;;15.70;99.90;;;;;;5043347;28;20512;-72
2022/10/05 03:34:55;;;;;;;0.10;0.10;;;15.70;99.90;;;;;;5041519;28;20053;-71
2022/10/05 03:37:42;;;;;;;0.10;0.10;;;15.70;99.90;;;;;;5049688;28;20044;-72
2022/10/05 03:40:29;;;;;;;0.17;0.17;;;15.60;99.90;;;;;;5043253;28;20084;-72
2022/10/05 03:42:58;;;;;;;0.10;0.10;;;15.60;99.90;;;;;;5025249;28;20053;-72
2022/10/05 03:45:54;;;;;;;0.10;0.10;;;15.60;99.90;;;;;;5026040;28;20073;-72
2022/10/05 03:48:31;;;;;;;0.10;0.10;;;15.70;99.90;;;;;;5018307;28;20401;-73
2022/10/05 03:51:23;;;;;;;0.10;0.10;;;15.70;99.90;;;;;;5032360;28;20048;-73
2022/10/05 03:53:56;;;;;;;0.08;0.08;;;15.70;99.90;;;;;;5033619;28;20100;-73
2022/10/05 03:56:35;;;;;;;0.10;0.10;;;15.70;99.90;;;;;;5027714;28;20050;-74
2022/10/05 03:59:38;;;;;;;0.20;0.20;;;15.70;99.90;;;;;;5030175;28;20389;-74
2022/10/05 04:02:08;;;;;;;0.10;0.10;;;15.60;99.90;;;;;;5030482;28;20179;-74
2022/10/05 04:04:44;;;;;;;0.00;0.00;;;15.60;99.90;;;;;;5034363;28;20044;-74
2022/10/05 04:07:22;;;;;;;0.22;0.22;;;15.60;99.90;;;;;;5049389;28;20120;-74
2022/10/05 04:09:51;;;;;;;0.17;0.17;;;15.60;99.90;;;;;;5049980;28;20048;-73
2022/10/05 04:12:37;;;;;;;0.10;0.10;;;15.60;99.90;;;;;;5043777;28;20397;-73
2022/10/05 04:15:33;;;;;;;0.00;0.00;;;15.60;99.90;;;;;;5032040;28;20616;-72
2022/10/05 04:18:10;;;;;;;0.40;0.40;;;15.60;99.90;;;;;;5045023;28;20056;-71
2022/10/05 04:20:42;;;;;;;0.00;0.00;;;15.60;99.90;;;;;;5051281;28;20069;-72
2022/10/05 04:23:16;;;;;;;0.03;0.03;;;15.60;99.90;;;;;;5024427;28;20049;-71
2022/10/05 04:25:47;;;;;;;0.03;0.03;;;15.60;99.90;;;;;;5049298;28;20041;-71
2022/10/05 04:28:35;;;;;;;0.13;0.13;;;15.60;99.90;;;;;;5030006;28;20168;-71
2022/10/05 04:31:04;;;;;;;0.10;0.10;;;15.60;99.90;;;;;;5034135;28;20409;-71
2022/10/05 04:33:30;;;;;;;0.30;0.30;;;15.60;99.90;;;;;;5036460;28;20413;-72
2022/10/05 04:36:01;;;;;;;0.20;0.20;;;15.60;99.90;;;;;;5041978;28;20077;-72
2022/10/05 04:38:45;;;;;;;0.28;0.28;;;15.60;99.90;;;;;;5053420;28;20049;-73
2022/10/05 04:41:41;;;;;;;0.10;0.10;;;15.60;99.90;;;;;;5030796;28;20091;-73
2022/10/05 04:44:34;;;;;;;0.20;0.08;;;15.60;99.90;;;;;;5033376;28;20041;-72
2022/10/05 04:47:18;;;;;;;0.47;0.47;;;15.60;99.90;;;;;;5047825;28;20045;-72
2022/10/05 04:49:51;;;;;;;;;;;15.60;99.90;;;;;;5050059;28;20040;-72
2022/10/05 04:52:46;;;;;;;0.40;0.40;;;15.60;99.90;;;;;;5050746;28;20007;-72
2022/10/05 04:55:24;;;;;;;0.10;0.10;;;15.60;99.90;;;;;;5030889;28;20288;-72
2022/10/05 04:57:55;;;;;;;0.00;0.00;;;15.60;99.90;;;;;;5031567;28;20053;-72
2022/10/05 05:00:30;;;;;;;0.10;0.10;;;15.60;99.90;;;;;;5051966;28;20520;-73
2022/10/05 05:03:08;;;;;;;0.35;0.35;;;15.50;99.90;;;;;;5051905;28;20060;-72
2022/10/05 05:05:40;;;;;;;0.10;0.10;;;15.50;99.90;;;;;;5052758;28;20124;-73
2022/10/05 05:08:34;;;;;;;0.15;0.15;;;15.50;99.90;;;;;;5036083;28;20049;-73
2022/10/05 05:11:06;;;;;;;0.35;0.35;;;15.50;99.90;;;;;;5026649;28;20099;-73
2022/10/05 05:13:58;;;;;;;0.03;0.03;;;15.50;99.90;;;;;;5032599;28;20073;-73
2022/10/05 05:16:37;;;;;;;0.00;0.00;;;15.50;99.90;;;;;;5028646;28;20053;-72
2022/10/05 05:19:27;;;;;;;0.30;0.30;;;15.50;99.90;;;;;;5029019;28;20489;-72
2022/10/05 05:22:30;;;;;;;0.40;0.40;;;15.50;99.90;;;;;;5033931;28;20427;-72
2022/10/05 05:25:28;;;;;;;0.20;0.20;;;15.50;99.90;;;;;;5021754;28;20140;-73
2022/10/05 05:28:00;;;;;;;0.20;0.20;;;15.40;99.90;;;;;;5028466;28;20549;-73
2022/10/05 05:30:38;;;;;;;0.22;0.22;;;15.50;99.90;;;;;;5029788;28;20060;-73
2022/10/05 05:33:14;;;;;;;0.65;0.65;;;15.50;99.90;;;;;;5051503;28;20388;-72
2022/10/05 05:36:08;;;;;;;0.30;0.30;;;15.50;99.90;;;;;;5051141;28;20060;-73
2022/10/05 05:38:42;;;;;;;0.20;0.20;;;15.50;99.90;;;;;;5031105;28;20152;-73
2022/10/05 05:41:12;;;;;;;;;;;15.50;99.90;;;;;;5029042;28;20042;-73
2022/10/05 05:43:55;;;;;;;0.20;0.20;;;15.50;99.90;;;;;;5032253;28;20015;-73
2022/10/05 05:46:24;;;;;;;0.22;0.22;;;15.50;99.90;;;;;;5030633;28;20067;-73
2022/10/05 05:48:51;;;;;;;0.10;0.10;;;15.40;99.90;;;;;;5046673;28;20067;-74
2022/10/05 05:51:33;;;;;;;0.95;0.95;;;15.50;99.90;;;;;;5050025;28;20045;-74
2022/10/05 05:54:36;;;;;;;0.43;0.43;;;15.40;99.90;;;;;;5038934;28;20060;-73
2022/10/05 05:57:18;;;;;;;0.22;0.22;;;15.40;99.90;;;;;;5031045;28;20057;-73
2022/10/05 05:59:46;;;;;;;0.32;0.32;;;15.40;99.90;;;;;;5030340;28;20049;-73
2022/10/05 06:02:18;;;;;;;0.35;0.35;;;15.40;99.90;;;;;;5021391;28;20103;-72
2022/10/05 06:04:49;;;;;;;1.17;0.73;;;15.40;99.90;;;;;;5049464;28;20451;-71
2022/10/05 06:07:19;;;;;;;0.10;0.10;;;15.40;99.90;;;;;;5051096;28;20045;-72
2022/10/05 06:09:50;;;;;;;2.25;1.27;;;15.40;99.90;;;;;;5044392;28;20594;-74
2022/10/05 06:12:21;;;;;;;2.03;0.68;;;15.40;99.90;;;;;;5049510;28;20045;-72
2022/10/05 06:14:57;;;;;;;0.10;0.10;;;15.40;99.90;;;;;;5050080;28;20053;-73
2022/10/05 06:17:35;;;;;;;0.10;0.10;;;15.40;99.90;;;;;;5050890;28;20045;-72
2022/10/05 06:20:03;;;;;;;0.30;0.30;;;15.40;99.90;;;;;;5050211;28;20055;-74
2022/10/05 06:22:35;;;;;;;0.15;0.13;;;15.40;99.90;;;;;;5027904;28;20095;-73
2022/10/05 06:25:14;;;;;;;0.20;0.20;;;15.40;99.90;;;;;;5029753;28;20099;-74
2022/10/05 06:27:45;;;;;;;0.10;0.10;;;15.40;99.90;;;;;;5018214;28;20054;-73
2022/10/05 06:30:17;;;;;;;0.00;0.00;;;15.40;99.90;;;;;;5037439;28;20677;-73
2022/10/05 06:32:51;;;;;;;0.52;0.30;;;15.40;99.90;;;;;;5027109;28;20053;-73
2022/10/05 06:35:35;;;;;;;0.20;0.20;;;15.40;99.90;;;;;;5026932;28;20033;-73
2022/10/05 06:38:14;;;;;;;;;;;15.40;99.90;;;;;;5011371;28;20048;-73
2022/10/05 06:40:51;;;;;;;0.40;0.40;;;15.40;99.90;;;;;;5013903;28;20019;-73
2022/10/05 06:43:27;;;;;;;0.35;0.35;;;15.40;99.90;;;;;;5020494;28;20191;-71
2022/10/05 06:46:06;;;;;;;0.30;0.30;;;15.50;99.90;;;;;;5029979;28;20064;-73
2022/10/05 06:48:40;;;;;;;0.10;0.10;;;15.50;99.90;;;;;;5031130;28;20041;-72
2022/10/05 06:51:18;;;;;;;0.10;0.10;;;15.50;99.90;;;;;;5024297;28;20049;-73
2022/10/05 06:54:02;;;;;;;0.10;0.10;;;15.50;99.90;;;;;;5039300;28;20053;-73
2022/10/05 06:56:54;;;;;;;0.15;0.15;;;15.50;99.90;;;;;;5028139;28;20037;-74
2022/10/05 06:59:45;;;;;;;0.55;0.55;;;15.50;99.90;;;;;;5028757;28;20056;-74
2022/10/05 07:02:35;;;;;;;0.03;0.03;;;15.50;99.90;;;;;;5028372;28;20140;-73
2022/10/05 07:05:33;;;;;;;0.80;0.65;;;15.50;99.90;;;;;;5024240;28;20045;-73
2022/10/05 07:08:21;;;;;;;0.13;0.13;;;15.60;99.90;;;;;;5044029;28;20045;-74
2022/10/05 07:11:23;;;;;;;0.10;0.10;;;15.50;99.90;;;;;;5047370;28;20056;-73
2022/10/05 07:13:55;;;;;;;0.55;0.50;;;15.60;99.90;;;;;;5046609;28;20114;-72
2022/10/05 07:16:44;;;;;;;0.10;0.10;;;15.60;99.90;;;;;;5037696;28;20143;-72
2022/10/05 07:19:25;;;;;;;0.35;0.20;;;15.60;99.90;;;;;;5038781;28;20099;-72
2022/10/05 07:22:15;;;;;;;0.55;0.55;;;15.60;99.90;;;;;;5019122;28;20041;-72
2022/10/05 07:24:58;;;;;;;0.20;0.20;;;15.70;99.90;;;;;;5022400;28;20053;-73
2022/10/05 07:27:26;;;;;;;0.15;0.15;;;15.70;99.90;;;;;;5040219;28;20045;-72
2022/10/05 07:30:05;;;;;;;5.00;1.23;;;15.70;99.90;;;;;;5026638;28;20103;-73
2022/10/05 07:32:54;;;;;;;0.13;0.13;;;15.70;99.90;;;;;;5036958;28;20141;-73
2022/10/05 07:38:19;;;;;;;0.00;0.00;;;15.70;99.90;;;;;;5025491;28;20724;-73
2022/10/05 07:40:55;;;;;;;2.03;0.68;;;15.80;99.90;;;;;;5027047;28;20045;-72
2022/10/05 07:43:33;;;;;;;0.10;0.10;;;15.70;99.90;;;;;;5022848;28;20054;-72
2022/10/05 07:46:21;;;;;;;0.00;0.00;;;15.70;99.90;;;;;;5038166;28;20095;-72
2022/10/05 07:49:25;;;;;;;0.10;0.10;;;15.70;99.90;;;;;;5030946;28;20512;-72
2022/10/05 07:51:56;;;;;;;0.10;0.10;;;15.80;99.90;;;;;;5018996;28;20045;-73
2022/10/05 07:54:43;;;;;;;0.20;0.20;;;15.80;99.90;;;;;;5032927;28;20623;-72
2022/10/05 07:57:27;;;;;;;0.10;0.10;;;15.80;99.90;;;;;;5009286;28;20042;-73
2022/10/05 08:00:02;;;;;;;1.30;1.20;;;15.90;99.90;;;;;;5024336;28;20049;-73
2022/10/05 08:02:33;;;;;;;0.10;0.10;;;15.90;99.90;;;;;;5032305;28;20049;-73
2022/10/05 08:05:10;;;;;;;0.00;0.00;;;15.90;99.90;;;;;;5021823;28;20053;-72
2022/10/05 08:07:36;;;;;;;0.10;0.10;;;15.90;99.90;;;;;;5031499;28;20069;-72
2022/10/05 08:10:28;;;;;;;1.17;1.08;;;15.90;99.90;;;;;;5020585;28;20045;-71
2022/10/05 08:13:00;;;;;;;0.10;0.10;;;16.00;99.90;;;;;;5021837;28;20049;-72
2022/10/05 08:15:41;;;;;;;0.10;0.10;;;15.90;99.90;;;;;;5028249;28;20053;-72
2022/10/05 08:18:39;;;;;;;0.15;0.15;;;16.00;99.90;;;;;;5015045;28;20081;-71
2022/10/05 08:21:10;;;;;;;0.20;0.20;;;15.90;99.90;;;;;;5028830;28;20115;-72
2022/10/05 08:23:46;;;;;;;0.00;0.00;;;16.00;99.90;;;;;;5030772;28;20090;-71
2022/10/05 08:26:38;;;;;;;0.10;0.10;;;16.00;99.90;;;;;;5030376;28;20139;-71
2022/10/05 08:29:28;;;;;;;0.10;0.10;;;16.00;99.90;;;;;;5027579;28;20409;-71
2022/10/05 08:32:02;;;;;;;0.05;0.05;;;16.10;99.90;;;;;;5038018;28;20071;-72
2022/10/05 08:35:07;;;;;;;0.10;0.10;;;16.20;99.90;;;;;;5032487;28;20041;-72
2022/10/05 08:37:38;;;;;;;0.10;0.10;;;16.20;99.90;;;;;;5028994;28;20065;-72
2022/10/05 08:40:34;;;;;;;0.10;0.10;;;16.20;99.90;;;;;;5030348;28;20132;-73
2022/10/05 08:43:18;;;;;;;0.10;0.10;;;16.30;99.90;;;;;;5019306;28;20506;-72
2022/10/05 08:46:11;;;;;;;0.10;0.10;;;16.40;99.90;;;;;;5042193;28;20060;-73
2022/10/05 08:48:52;;;;;;;0.90;0.50;;;16.50;99.90;;;;;;5034012;28;20037;-72
2022/10/05 08:51:31;;;;;;;0.10;0.10;;;16.50;99.90;;;;;;5018734;28;20156;-73
2022/10/05 08:54:39;;;;;;;0.03;0.03;;;16.60;99.90;;;;;;5034774;28;20071;-74
2022/10/05 08:57:24;;;;;;;0.10;0.10;;;16.60;99.90;;;;;;5015237;28;20824;-73
2022/10/05 08:59:59;;;;;;;0.03;0.03;;;16.50;99.90;;;;;;5027010;28;20493;-72
2022/10/05 09:02:50;;;;;;;0.10;0.10;;;16.60;99.90;;;;;;5028344;28;20061;-72
2022/10/05 09:05:22;;;;;;;0.00;0.00;;;16.60;99.90;;;;;;5040526;28;20489;-73
2022/10/05 09:08:09;;;;;;;0.10;0.10;;;16.60;99.90;;;;;;5033492;28;20045;-73
2022/10/05 09:10:58;;;;;;;0.30;0.30;;;16.60;99.90;;;;;;5024962;28;20132;-73
2022/10/05 09:13:32;;;;;;;0.90;0.90;;;17.10;99.90;;;;;;5027618;28;20567;-73
2022/10/05 09:16:09;;;;;;;2.83;0.85;;;17.90;99.90;;;;;;5030836;28;20456;-71
2022/10/05 09:18:52;;;;;;;0.10;0.10;;;18.80;99.90;;;;;;5043511;28;20060;-71
2022/10/05 09:21:49;;;;;;;0.38;0.38;;;19.40;99.90;;;;;;5036668;28;21765;-73
2022/10/05 09:24:22;;;;;;;0.08;0.08;;;19.80;99.90;;;;;;5029485;28;20045;-75
2022/10/05 09:27:02;;;;;;;1.15;0.52;;;20.10;99.90;;;;;;5020640;28;20505;-72
2022/10/05 09:30:05;;;;;;;5.68;0.75;;;20.30;99.90;;;;;;5038962;28;20051;-74
2022/10/05 09:32:50;;;;;;;0.55;0.45;;;20.30;99.90;;;;;;5031856;28;20140;-73
2022/10/05 09:35:46;;;;;;;0.10;0.10;;;20.00;99.90;;;;;;5026466;28;20081;-72
2022/10/05 09:38:28;;;;;;;0.20;0.20;;;20.30;99.90;;;;;;5036723;28;20413;-73
2022/10/05 09:40:54;;;;;;;0.10;0.10;;;20.60;99.90;;;;;;5030161;28;20151;-73
2022/10/05 09:43:51;;;;;;;0.10;0.10;;;20.60;99.90;;;;;;5026756;28;20143;-73
2022/10/05 09:46:54;;;;;;;0.10;0.10;;;20.30;99.90;;;;;;5033399;28;20076;-74
2022/10/05 09:49:34;;;;;;;0.10;0.08;;;19.80;99.90;;;;;;5018118;28;20183;-73
2022/10/05 09:52:24;;;;;;;0.35;0.20;;;19.40;99.90;;;;;;5025031;28;20141;-74
2022/10/05 09:55:22;;;;;;;0.00;0.00;;;18.90;99.90;;;;;;5034982;28;20045;-77
2022/10/05 09:58:13;;;;;;;0.10;0.10;;;18.60;99.90;;;;;;5015483;28;20119;-74
2022/10/05 10:00:56;;;;;;;0.00;0.00;;;18.40;99.90;;;;;;5025667;28;20042;-76
2022/10/05 10:03:42;;;;;;;2.20;0.73;;;18.10;99.90;;;;;;5029140;28;20053;-76
2022/10/05 10:06:34;;;;;;;0.00;0.00;;;17.90;99.90;;;;;;5036266;28;20489;-76
2022/10/05 10:09:26;;;;;;;0.10;0.10;;;17.80;99.90;;;;;;5028642;28;20054;-75
2022/10/05 10:12:22;;;;;;;0.75;0.20;;;17.70;99.90;;;;;;5019504;28;20091;-80
2022/10/05 10:15:20;;;;;;;0.00;0.00;;;17.60;99.90;;;;;;5039110;28;20052;-76
2022/10/05 10:18:00;;;;;;;0.00;0.00;;;17.50;99.90;;;;;;5033543;28;20103;-75
2022/10/05 10:20:43;;;;;;;0.00;0.00;;;17.40;99.90;;;;;;5027161;28;20136;-78
2022/10/05 10:23:33;;;;;;;0.30;0.30;;;17.30;99.90;;;;;;5035021;28;20068;-74
2022/10/05 10:26:17;;;;;;;0.38;0.38;;;17.30;99.90;;;;;;5039869;28;20056;-71
2022/10/05 10:28:59;;;;;;;0.90;0.30;;;17.20;99.90;;;;;;5029848;28;20041;-75
2022/10/05 10:31:33;;;;;;;0.00;0.00;;;17.20;99.90;;;;;;5021196;28;20058;-73
2022/10/05 10:34:13;;;;;;;0.30;0.30;;;17.20;99.90;;;;;;5029874;28;20051;-74
2022/10/05 10:36:57;;;;;;;0.20;0.20;;;17.10;99.90;;;;;;5028510;28;20041;-73
2022/10/05 10:39:56;;;;;;;0.00;0.00;;;17.10;99.90;;;;;;5010212;28;20046;-73
2022/10/05 10:42:45;;;;;;;0.00;0.00;;;17.10;99.90;;;;;;5027357;28;20049;-72
2022/10/05 10:45:18;;;;;;;0.10;0.10;;;17.10;99.90;;;;;;5025200;28;20056;-72
2022/10/05 10:48:30;;;;;;;0.10;0.10;;;17.00;99.90;;;;;;5021355;28;20099;-74
2022/10/05 10:51:29;;;;;;;0.30;0.30;;;17.00;99.90;;;;;;5032972;28;20135;-76
2022/10/05 10:54:32;;;;;;;0.10;0.10;;;17.00;99.90;;;;;;5023982;28;20050;-74
2022/10/05 10:57:12;;;;;;;0.10;0.10;;;16.90;99.90;;;;;;5014370;28;20049;-75
2022/10/05 10:59:40;;;;;;;0.00;0.00;;;16.90;99.90;;;;;;5034454;28;20362;-76
2022/10/05 11:02:42;;;;;;;0.65;0.65;;;16.90;99.90;;;;;;5026540;28;20058;-72
2022/10/05 11:05:26;;;;;;;0.90;0.22;;;16.80;99.90;;;;;;5029052;28;20045;-73
2022/10/05 11:08:04;;;;;;;0.63;0.63;;;16.90;99.90;;;;;;5029554;28;20057;-74
2022/10/05 11:10:59;;;;;;;0.00;0.00;;;16.80;99.90;;;;;;5030219;28;20045;-73
2022/10/05 11:13:31;;;;;;;8.02;0.52;;;16.80;99.90;;;;;;5038570;28;20550;-72
2022/10/05 11:15:59;;;;;;;0.10;0.10;;;16.80;99.90;;;;;;5040112;28;20393;-74
2022/10/05 11:18:44;;;;;;;12.23;0.85;;;16.80;99.90;;;;;;5025749;28;20053;-73
2022/10/05 11:21:12;;;;;;;0.00;0.00;;;16.80;99.90;;;;;;5035645;28;20076;-75
2022/10/05 11:24:02;;;;;;;0.32;0.32;;;16.80;99.90;;;;;;5032955;28;20476;-72
2022/10/05 11:26:58;;;;;;;0.10;0.10;;;16.80;99.90;;;;;;5028936;28;20049;-72
2022/10/05 11:29:50;;;;;;;0.52;0.43;;;16.80;99.90;;;;;;5028354;28;20041;-71
2022/10/05 11:32:43;;;;;;;0.00;0.00;;;16.70;99.90;;;;;;5029420;28;20053;-73
2022/10/05 11:35:25;;;;;;;0.10;0.10;;;16.70;99.90;;;;;;5029832;28;20397;-71
2022/10/05 11:37:54;;;;;;;0.03;0.03;;;16.70;99.90;;;;;;5031953;28;20045;-72
2022/10/05 11:40:46;;;;;;;0.10;0.10;;;16.70;99.90;;;;;;5035782;28;20045;-74
2022/10/05 11:43:39;;;;;;;0.35;0.28;;;16.60;99.90;;;;;;5020236;28;20136;-73
2022/10/05 11:46:22;;;;;;;0.00;0.00;;;16.60;99.90;;;;;;5043267;28;20046;-75
2022/10/05 11:48:48;;;;;;;;;;;16.60;99.90;;;;;;5031570;28;20051;-73
2022/10/05 11:51:41;;;;;;;0.10;0.10;;;16.60;99.90;;;;;;5029716;28;19921;-73
2022/10/05 11:54:36;;;;;;;0.20;0.20;;;16.60;99.90;;;;;;5021196;28;20049;-73
2022/10/05 11:57:24;;;;;;;0.00;0.00;;;16.70;99.90;;;;;;5011629;28;20041;-72
2022/10/05 12:00:01;;;;;;;0.43;0.38;;;16.60;99.90;;;;;;5027804;28;20091;-71
2022/10/05 12:02:43;;;;;;;0.00;0.00;;;16.60;99.90;;;;;;5042718;28;20063;-73
2022/10/05 12:05:36;;;;;;;0.10;0.10;;;16.60;99.90;;;;;;5030921;28;20896;-72
2022/10/05 12:08:14;;;;;;;0.00;0.00;;;16.60;99.90;;;;;;5021746;28;20043;-73
2022/10/05 12:10:43;;;;;;;0.00;0.00;;;16.60;99.90;;;;;;5032439;28;20103;-74
2022/10/05 12:13:24;;;;;;;0.32;0.32;;;16.60;99.90;;;;;;5035926;28;20047;-72
2022/10/05 12:16:01;;;;;;;0.00;0.00;;;16.60;99.90;;;;;;5031662;28;20049;-73
2022/10/05 12:18:29;;;;;;;0.80;0.65;;;16.60;99.90;;;;;;5036940;28;20080;-74
2022/10/05 12:21:04;;;;;;;0.30;0.30;;;16.60;99.90;;;;;;5033557;28;20393;-72
2022/10/05 12:23:41;;;;;;;0.00;0.00;;;16.60;99.90;;;;;;5026356;28;20046;-72
2022/10/05 12:26:17;;;;;;;0.08;0.08;;;16.60;99.90;;;;;;5044615;28;20049;-74
2022/10/05 12:28:52;;;;;;;0.20;0.20;;;16.60;99.90;;;;;;5021784;28;20042;-73
2022/10/05 12:31:42;;;;;;;0.10;0.10;;;16.60;99.90;;;;;;5030711;28;20081;-73
2022/10/05 12:34:22;;;;;;;0.10;0.10;;;16.70;99.90;;;;;;5024131;28;20049;-73
2022/10/05 12:37:10;;;;;;;3.22;0.38;;;16.70;99.90;;;;;;5032010;28;20052;-74
2022/10/05 12:39:49;;;;;;;0.88;0.80;;;16.80;99.90;;;;;;5050889;28;20052;-73
2022/10/05 12:42:27;;;;;;;0.15;0.13;;;16.80;99.90;;;;;;5027408;28;20125;-72
2022/10/05 12:45:08;;;;;;;2.72;1.95;;;16.70;99.90;;;;;;5029935;28;20504;-74
2022/10/05 12:47:40;;;;;;;1.33;1.23;;;16.80;99.90;;;;;;5033525;28;20041;-74
2022/10/05 12:50:27;;;;;;;0.00;0.00;;;16.80;99.90;;;;;;5042733;28;20052;-73
2022/10/05 12:53:21;;;;;;;0.10;0.10;;;16.80;99.90;;;;;;5041732;28;20041;-73
2022/10/05 12:56:11;;;;;;;0.10;0.10;;;16.80;99.90;;;;;;5031587;28;20149;-74
2022/10/05 12:58:54;;;;;;;0.00;0.00;;;16.80;99.90;;;;;;5038945;28;20426;-74
2022/10/05 13:01:36;;;;;;;1.30;1.20;;;16.80;99.90;;;;;;5051337;28;20057;-72
2022/10/05 13:04:39;;;;;;;0.03;0.03;;;16.90;99.90;;;;;;5036610;28;20033;-72
2022/10/05 13:07:26;;;;;;;0.10;0.10;;;16.90;99.90;;;;;;5030365;28;20057;-74
2022/10/05 13:10:23;;;;;;;0.10;0.10;;;17.00;99.90;;;;;;5026926;28;20052;-75
2022/10/05 13:13:16;;;;;;;0.10;0.10;;;17.00;99.90;;;;;;5051507;28;20049;-73
2022/10/05 13:16:08;;;;;;;0.10;0.10;;;17.10;99.90;;;;;;5023384;28;20081;-75
2022/10/05 13:18:53;;;;;;;0.10;0.10;;;17.40;99.90;;;;;;5022716;28;20045;-73
2022/10/05 13:21:37;;;;;;;0.65;0.35;;;18.00;99.90;;;;;;5044608;28;20059;-73
2022/10/05 13:24:17;;;;;;;0.10;0.10;;;18.70;99.90;;;;;;5031424;28;20080;-74
2022/10/05 13:27:14;;;;;;;0.10;0.10;;;19.30;99.90;;;;;;5032649;28;20276;-74
2022/10/05 13:29:48;;;;;;;0.25;0.25;;;19.70;99.90;;;;;;5031218;28;20531;-74
2022/10/05 13:32:58;;;;;;;0.03;0.03;;;20.00;99.90;;;;;;5037945;28;20057;-74
2022/10/05 13:35:44;;;;;;;0.05;0.05;;;20.20;99.90;;;;;;4991278;28;20058;-73
2022/10/05 13:38:35;;;;;;;0.32;0.32;;;19.90;99.90;;;;;;5042844;28;20065;-75
2022/10/05 13:41:19;;;;;;;0.32;0.32;;;20.10;99.90;;;;;;5033797;28;20056;-75
2022/10/05 13:43:56;;;;;;;;;;;20.00;99.90;;;;;;5032760;28;20053;-75
2022/10/05 13:46:41;;;;;;;1.08;0.98;;;19.60;99.90;;;;;;5041876;28;19925;-75
2022/10/05 13:49:25;;;;;;;0.30;0.30;;;19.10;99.90;;;;;;5034328;28;20049;-77
2022/10/05 13:51:50;;;;;;;;;;;18.70;99.90;;;;;;5024235;28;20821;-77
2022/10/05 13:54:23;;;;;;;0.00;0.00;;;18.40;99.90;;;;;;5023685;28;19927;-77
2022/10/05 13:56:55;;;;;;;0.77;0.15;;;18.20;99.90;;;;;;5051539;28;20049;-77
2022/10/05 13:59:31;;;;;;;1.40;0.95;;;18.00;99.90;;;;;;5032292;28;20049;-75
2022/10/05 14:02:04;;;;;;;0.00;0.00;;;17.90;99.90;;;;;;5032560;28;20053;-74
2022/10/05 14:04:47;;;;;;;0.32;0.32;;;17.80;99.90;;;;;;5014660;28;20120;-74
2022/10/05 14:07:23;;;;;;;0.00;0.00;;;17.70;99.90;;;;;;5025476;28;20046;-74
2022/10/05 14:09:49;;;;;;;0.28;0.28;;;17.60;99.90;;;;;;5042750;28;20049;-77